Aroya, Colorado
Current Conditions -  °F | °C
As of 12:55 PM on Thursday 29 Jan 2015 (Local Time) from KLIC Reporting Station
Overcast Overcast  
Wind Chill: 40°   Ceiling: 5000
Heat Index: 44°   Visibility: 10mi
Dew Point: 16°   Wind: 8mph
Humidity: 32%   Direction: 350°N
Pressure: 30.46"   Gusts: NA
Location:  38.8543°N, 103.125°W
Report Text: KLIC 291955Z AUTO 35007KT 300V050 10SM OVC050 07/M09 A3046 RMK AO2 SLP319 T00671089
Loading
Personal Weather Stations






























Interactive Weather Map New forecast layout! Learn more

10-Day Weather Forecast

Advertisements
Track Severe Weather on mobile